createdAt,value
2023-01-09T00:00:30.955Z,6.33
2023-01-09T00:05:31.635Z,6.28
2023-01-09T00:10:32.359Z,6.28
2023-01-09T00:15:33.051Z,6.27
2023-01-09T00:20:34.074Z,6.25
2023-01-09T00:25:34.288Z,6.19
2023-01-09T00:30:35.073Z,6.11
2023-01-09T00:35:35.758Z,6.11
2023-01-09T00:40:36.457Z,6.08
2023-01-09T00:45:37.267Z,6.00
2023-01-09T00:50:37.973Z,5.93
2023-01-09T00:55:38.667Z,5.90
2023-01-09T01:00:39.462Z,5.86
2023-01-09T01:05:40.229Z,5.86
2023-01-09T01:10:40.990Z,5.82
2023-01-09T01:15:41.709Z,5.86
2023-01-09T01:20:42.413Z,5.90
2023-01-09T01:25:43.205Z,5.89
2023-01-09T01:30:44.068Z,5.90
2023-01-09T01:35:44.748Z,5.82
2023-01-09T01:40:45.467Z,5.76
2023-01-09T01:45:46.240Z,5.75
2023-01-09T01:50:46.965Z,5.76
2023-01-09T01:55:47.656Z,5.75
2023-01-09T02:00:48.364Z,5.71
2023-01-09T02:05:49.074Z,5.72
2023-01-09T02:10:49.799Z,5.72
2023-01-09T02:15:50.563Z,5.68
2023-01-09T02:20:51.251Z,5.60
2023-01-09T02:25:52.005Z,5.56
2023-01-09T02:30:52.708Z,5.51
2023-01-09T02:35:53.432Z,5.45
2023-01-09T02:40:54.149Z,5.48
2023-01-09T02:46:01.952Z,5.43
2023-01-09T02:50:55.596Z,5.33
2023-01-09T02:55:56.334Z,5.36
2023-01-09T03:00:57.130Z,5.33
2023-01-09T03:05:57.607Z,5.35
2023-01-09T03:10:58.317Z,5.36
2023-01-09T03:15:59.091Z,5.33
2023-01-09T03:20:59.758Z,5.35
2023-01-09T03:26:00.504Z,5.43
2023-01-09T03:31:01.182Z,5.43
2023-01-09T03:36:01.896Z,5.49
2023-01-09T03:41:02.640Z,5.54
2023-01-09T03:46:03.500Z,5.57
2023-01-09T03:51:04.174Z,5.63
2023-01-09T03:56:04.935Z,5.68
2023-01-09T04:01:05.800Z,5.76
2023-01-09T04:06:06.510Z,5.82
2023-01-09T04:11:07.258Z,5.89
2023-01-09T04:16:08.035Z,5.89
2023-01-09T04:21:08.724Z,5.86
2023-01-09T04:26:09.478Z,5.89
2023-01-09T04:31:10.183Z,5.94
2023-01-09T04:36:10.918Z,5.96
2023-01-09T04:41:11.665Z,6.00
2023-01-09T04:46:12.438Z,6.01
2023-01-09T04:51:14.084Z,6.00
2023-01-09T04:56:13.886Z,6.01
2023-01-09T05:01:14.681Z,6.03
2023-01-09T05:06:15.400Z,6.00
2023-01-09T05:11:16.247Z,6.03
2023-01-09T05:16:17.009Z,6.03
2023-01-09T05:21:17.709Z,5.96
2023-01-09T05:26:18.441Z,5.99
2023-01-09T05:31:19.197Z,6.09
2023-01-09T05:36:19.937Z,6.15
2023-01-09T05:41:22.151Z,6.19
2023-01-09T05:46:21.200Z,6.21
2023-01-09T05:51:21.986Z,6.25
2023-01-09T05:56:22.684Z,6.44
2023-01-09T06:01:23.997Z,6.41
2023-01-09T06:06:24.376Z,6.38
2023-01-09T06:11:25.106Z,6.21
2023-01-09T06:16:25.852Z,6.25
2023-01-09T06:21:26.511Z,6.19
2023-01-09T06:26:27.329Z,6.38
2023-01-09T06:31:28.302Z,6.36
2023-01-09T06:36:28.956Z,6.22
2023-01-09T06:41:29.657Z,6.22
2023-01-09T06:46:30.437Z,6.18
2023-01-09T06:51:31.127Z,6.21
2023-01-09T06:56:31.759Z,6.25
2023-01-09T07:01:32.582Z,6.33
2023-01-09T07:06:33.235Z,6.28
2023-01-09T07:11:33.902Z,6.22
2023-01-09T07:16:34.536Z,6.22
2023-01-09T07:21:35.214Z,6.25
2023-01-09T07:26:35.865Z,6.31
2023-01-09T07:31:36.629Z,6.28
2023-01-09T07:36:37.281Z,6.34
2023-01-09T07:41:38.019Z,6.36
2023-01-09T07:46:38.707Z,6.48
2023-01-09T07:51:39.352Z,6.46
2023-01-09T07:56:40.024Z,6.48
2023-01-09T08:01:40.788Z,6.52
2023-01-09T08:06:41.495Z,6.58
2023-01-09T08:11:42.173Z,6.46
2023-01-09T08:16:42.807Z,6.56
2023-01-09T08:21:43.472Z,6.64
2023-01-09T08:26:44.119Z,6.67
2023-01-09T08:31:44.870Z,6.67
2023-01-09T08:36:45.458Z,6.66
2023-01-09T08:41:46.133Z,6.74
2023-01-09T08:46:53.851Z,6.76
2023-01-09T08:51:47.668Z,6.76
2023-01-09T08:56:48.332Z,6.80
2023-01-09T09:01:49.069Z,6.79
2023-01-09T09:06:49.789Z,6.84
2023-01-09T09:11:50.444Z,6.91
2023-01-09T09:16:51.116Z,6.97
2023-01-09T09:21:51.775Z,6.97
2023-01-09T09:26:52.467Z,7.06
2023-01-09T09:31:53.091Z,7.10
2023-01-09T09:36:53.758Z,7.12
2023-01-09T09:41:54.399Z,7.16
2023-01-09T09:46:55.084Z,7.31
2023-01-09T09:51:55.782Z,7.39
2023-01-09T09:56:56.428Z,7.49
2023-01-09T10:01:57.096Z,7.67
2023-01-09T10:06:57.735Z,7.72
2023-01-09T10:11:58.380Z,7.80
2023-01-09T10:16:59.035Z,7.85
2023-01-09T10:21:59.734Z,7.90
2023-01-09T10:27:00.393Z,8.01
2023-01-09T10:32:01.057Z,8.10
2023-01-09T10:37:01.767Z,8.15
2023-01-09T10:42:02.372Z,8.18
2023-01-09T10:47:03.059Z,8.12
2023-01-09T10:52:03.692Z,8.20
2023-01-09T10:57:04.381Z,8.25
2023-01-09T11:02:05.019Z,8.28
2023-01-09T11:07:05.670Z,8.34
2023-01-09T11:12:06.332Z,8.37
2023-01-09T11:17:07.027Z,8.34
2023-01-09T11:22:07.658Z,8.43
2023-01-09T11:27:08.309Z,8.48
2023-01-09T11:32:08.976Z,8.50
2023-01-09T11:37:09.754Z,8.53
2023-01-09T11:42:10.507Z,8.52
2023-01-09T11:47:11.195Z,8.59
2023-01-09T11:52:11.924Z,8.61
2023-01-09T11:57:12.571Z,8.68
2023-01-09T12:02:13.329Z,8.68
2023-01-09T12:07:13.964Z,8.63
2023-01-09T12:12:15.931Z,8.66
2023-01-09T12:17:15.164Z,8.76
2023-01-09T12:22:15.921Z,8.77
2023-01-09T12:27:17.430Z,8.91
2023-01-09T12:32:17.107Z,8.84
2023-01-09T12:37:17.757Z,8.74
2023-01-09T12:42:18.412Z,8.62
2023-01-09T12:47:19.115Z,8.58
2023-01-09T12:52:19.776Z,8.55
2023-01-09T12:57:20.466Z,8.44
2023-01-09T13:02:21.179Z,8.40
2023-01-09T13:07:21.835Z,8.45
2023-01-09T13:12:22.506Z,8.55
2023-01-09T13:17:23.152Z,8.56
2023-01-09T13:22:23.814Z,8.62
2023-01-09T13:27:24.448Z,8.62
2023-01-09T13:32:25.156Z,8.66
2023-01-09T13:37:25.821Z,8.66
2023-01-09T13:42:26.499Z,8.68
2023-01-09T13:47:27.164Z,8.63
2023-01-09T13:52:27.840Z,8.63
2023-01-09T13:57:28.698Z,8.73
2023-01-09T14:02:29.365Z,8.70
2023-01-09T14:07:30.020Z,8.62
2023-01-09T14:12:30.788Z,8.59
2023-01-09T14:17:31.508Z,8.58
2023-01-09T14:22:35.086Z,8.56
2023-01-09T14:27:33.735Z,8.63
2023-01-09T14:32:33.475Z,8.61
2023-01-09T14:37:35.411Z,8.61
2023-01-09T14:42:34.938Z,8.62
2023-01-09T14:47:42.644Z,8.63
2023-01-09T14:52:36.232Z,8.65
2023-01-09T14:57:36.929Z,8.66
2023-01-09T15:02:37.642Z,8.58
2023-01-09T15:07:38.286Z,8.55
2023-01-09T15:12:38.973Z,8.55
2023-01-09T15:17:39.578Z,8.53
2023-01-09T15:22:40.243Z,8.53
2023-01-09T15:27:40.909Z,8.53
2023-01-09T15:32:41.537Z,8.50
2023-01-09T15:37:42.200Z,8.52
2023-01-09T15:42:42.855Z,8.55
2023-01-09T15:47:43.539Z,8.56
2023-01-09T15:52:44.208Z,8.56
2023-01-09T15:57:44.919Z,8.58
2023-01-09T16:02:45.653Z,8.62
2023-01-09T16:07:46.326Z,8.63
2023-01-09T16:12:47.020Z,8.61
2023-01-09T16:17:47.724Z,8.55
2023-01-09T16:22:48.438Z,8.61
2023-01-09T16:27:49.158Z,8.58
2023-01-09T16:32:49.924Z,8.50
2023-01-09T16:37:50.613Z,8.47
2023-01-09T16:42:51.454Z,8.47
2023-01-09T16:47:52.175Z,8.47
2023-01-09T16:52:52.893Z,8.40
2023-01-09T16:57:53.604Z,8.30
2023-01-09T17:02:54.328Z,8.20
2023-01-09T17:07:55.009Z,8.16
2023-01-09T17:12:55.737Z,8.12
2023-01-09T17:17:56.427Z,8.16
2023-01-09T17:22:57.153Z,8.15
2023-01-09T17:27:57.839Z,8.18
2023-01-09T17:32:58.558Z,8.19
2023-01-09T17:37:59.441Z,8.11
2023-01-09T17:43:00.155Z,8.05
2023-01-09T17:48:00.914Z,8.02
2023-01-09T17:53:01.688Z,7.95
2023-01-09T17:58:02.359Z,7.90
2023-01-09T18:03:03.054Z,7.89
2023-01-09T18:08:03.838Z,7.89
2023-01-09T18:13:04.581Z,7.97
2023-01-09T18:18:05.263Z,8.00
2023-01-09T18:23:05.941Z,8.01
2023-01-09T18:28:06.687Z,8.00
2023-01-09T18:33:07.484Z,8.02
2023-01-09T18:38:08.155Z,8.00
2023-01-09T18:43:08.875Z,7.98
2023-01-09T18:48:09.636Z,7.97
2023-01-09T18:53:10.317Z,8.00
2023-01-09T18:58:10.985Z,8.01
2023-01-09T19:03:11.723Z,7.97
2023-01-09T19:08:12.450Z,7.97
2023-01-09T19:13:13.200Z,7.90
2023-01-09T19:18:13.935Z,7.93
2023-01-09T19:23:14.735Z,7.97
2023-01-09T19:28:15.438Z,8.01
2023-01-09T19:33:16.179Z,8.01
2023-01-09T19:38:16.980Z,8.01
2023-01-09T19:43:17.710Z,8.02
2023-01-09T19:48:18.421Z,8.02
2023-01-09T19:53:19.093Z,8.01
2023-01-09T19:58:19.899Z,8.02
2023-01-09T20:03:20.649Z,8.00
2023-01-09T20:08:21.373Z,8.01
2023-01-09T20:13:22.032Z,8.02
2023-01-09T20:18:22.814Z,8.01
2023-01-09T20:23:23.552Z,7.97
2023-01-09T20:28:24.260Z,7.98
2023-01-09T20:33:25.024Z,8.00
2023-01-09T20:38:25.708Z,8.04
2023-01-09T20:43:26.427Z,8.04
2023-01-09T20:48:27.147Z,8.02
2023-01-09T20:53:27.892Z,8.01
2023-01-09T20:58:28.822Z,8.01
2023-01-09T21:03:29.609Z,8.00
2023-01-09T21:08:30.328Z,8.00
2023-01-09T21:13:31.041Z,7.98
2023-01-09T21:18:31.762Z,8.01
2023-01-09T21:23:32.614Z,8.00
2023-01-09T21:28:33.338Z,7.98
2023-01-09T21:33:34.067Z,8.00
2023-01-09T21:38:34.784Z,8.02
2023-01-09T21:43:35.539Z,8.05
2023-01-09T21:48:36.232Z,8.10
2023-01-09T21:53:37.033Z,8.10
2023-01-09T21:58:37.784Z,8.07
2023-01-09T22:03:38.500Z,8.08
2023-01-09T22:08:39.204Z,8.10
2023-01-09T22:13:40.045Z,8.07
2023-01-09T22:18:40.783Z,8.05
2023-01-09T22:23:41.501Z,8.08
2023-01-09T22:28:42.267Z,8.07
2023-01-09T22:33:42.967Z,8.02
2023-01-09T22:38:43.709Z,8.05
2023-01-09T22:43:44.442Z,8.01
2023-01-09T22:48:52.152Z,8.00
2023-01-09T22:53:45.851Z,7.95
2023-01-09T22:58:46.612Z,7.95
2023-01-09T23:03:47.322Z,7.95
2023-01-09T23:08:48.037Z,7.93
2023-01-09T23:13:48.754Z,7.97
2023-01-09T23:18:49.491Z,8.01
2023-01-09T23:23:50.188Z,8.02
2023-01-09T23:28:50.898Z,7.98
2023-01-09T23:33:51.621Z,7.95
2023-01-09T23:38:52.356Z,7.92
2023-01-09T23:43:53.070Z,7.85
2023-01-09T23:48:53.771Z,7.83
2023-01-09T23:53:54.474Z,7.85
2023-01-09T23:58:55.212Z,7.85
